Van Nuys Airport
KVNY : now visible

Airfield :











YOU CAN JOIN US ON...

 
LOGIN :

Register | Disclaimer

   EN    FR    IT 

 









Legend :    VFR   Marginal VFR   IFR   Intensive IFR   Very Intensive IFR
Visi :
Ceiling :
>= 8 km
>= 3000ft
5 to 8 km
1000 to 3000 ft
1500m to 5 km
500 to 1000 ft
800 to 1500m
200 to 500 ft
< 800m
< 200 ft
Symbols :   Thunderstorms  Fog  Heavy snow  Heavy precipitations  Wind > 20 kt







- Airport Elevation : 802 ft


KVNY - Van Nuys

CURRENT METAR :
  • 170842Z AUTO 00000KT 9SM BKN009 BKN013 18/16 A2993 RMK AO2 T01830161

EXPIRED METARs :
  • 170835Z AUTO 06003KT 10SM SCT009 18/16 A2993 RMK AO2 T01830156
  • 170751Z AUTO 13004KT 10SM CLR 18/16 A2992 RMK AO2 SLP122 T01830156 403110183
  • 170651Z AUTO 11005KT 10SM CLR 19/15 A2990 RMK AO2 SLP116 T01940150
  • 170551Z AUTO 11003KT 10SM CLR 20/14 A2990 RMK AO2 SLP114 T02000144 10283 20200 51010

TAF KVNY
Valid from the 17 at 06:00 until the 18 at 06:00 UTC


170537Z 1706/1806 VRB03KT P6SM SCT200
FM172000 16008KT P6SM FEW250
FM180300 VRB03KT P6SM SKC
No reported NOTAMs for that airfield.



MET'MAP, your aeronautical weather chart ! - Copyright ORBIFLY December 2007 - Disclaimer

ORBIFLY MET'MAP TEAM :

Programming & Development : Alexandra Zaïnal
Concept & Development : Baudouin d'Aumeries
Co-Development & Prog : Marc-Olivier Méhu
Technical & hardware support : Manuel Goepfert

Contact : metmap@orbifly.com




SOURCES & CREDITS :

   NOAA       Earth
Advisory